Главная страница
METAR-TAF:

METAR-TAF

Аэропорты :

Мераге, Иран

широта: 37-20-55N, долгота: 046-07-35E, высота над уровнем моря: 1340 м

Текущие метеонаблюдения

Эта сводка был подготовлена 16 минут назад, в 07:00 UTC
Ветер 6 Узел от восточный
Температура 14°C
Влажность 77%
Давление 1016 hPa
Видимость 10 км и более
Отдельные облака на высоте 1500 фута
Рассеянная облачность на высоте 8000 фута

METAR: OITM 220700Z 08006KT 9999 SCT015 BKN080 14/10 Q1016

Время: 11:46 (07:16 UTC)


TAF: отсутствует

Метеонаблюдения и прогнозы для более 4000 аэропортов (сводки METAR и TAF).

Имеющиеся станции представлены на карте желтыми и красными точками.

Чтобы увидеть название станции, наведите на нее мышь.

Затем щелкните, чтобы увидеть метеонаблюдения и метеопрогнозы.

Управление картой: чтобы увеличить масштаб, щелкните зеленые кнопки с черным крестиком; чтобы уменьшить масштаб, щелкните зеленую кнопку с тире; для просмотра соседних карт щелкайте зеленые стрелки.


METAR-TAF: